Time,TemperatureF,DewpointF,PressureIn,WindDirection,WindDirectionDegrees,WindSpeedMPH,WindSpeedGustMPH,Humidity,HourlyPrecipIn,Conditions,Clouds,dailyrainin,SolarRadiationWatts/m^2,SoftwareType,DateUTC
2013-03-28 00:22:00,39.0,32.0,29.97,NNE,17,4.0,5.0,76,-99.99,,,-99.99,0.000000,,2013-03-28 07:22:00,
2013-03-28 00:32:00,39.0,32.0,29.97,NNE,17,4.0,5.0,76,-99.99,,,-99.99,0.000000,,2013-03-28 07:32:00,
2013-03-28 00:40:00,41.0,33.0,29.96,North,351,3.0,4.0,72,-99.99,,,-99.99,0.000000,,2013-03-28 07:40:00,
2013-03-28 01:21:00,41.0,33.0,29.96,North,351,3.0,4.0,72,-99.99,,,-99.99,0.000000,,2013-03-28 08:21:00,
2013-03-28 01:32:00,41.0,33.0,29.96,North,351,3.0,4.0,72,-99.99,,,-99.99,0.000000,,2013-03-28 08:32:00,
2013-03-28 01:40:00,41.0,33.0,29.96,WNW,303,0.0,1.0,75,-99.99,,,-99.99,0.000000,,2013-03-28 08:40:00,
2013-03-28 02:22:00,41.0,33.0,29.96,WNW,303,0.0,1.0,75,-99.99,,,-99.99,0.000000,,2013-03-28 09:22:00,
2013-03-28 02:32:00,41.0,33.0,29.96,WNW,303,0.0,1.0,75,-99.99,,,-99.99,0.000000,,2013-03-28 09:32:00,
2013-03-28 02:40:00,41.0,34.0,-100.00,SSW,208,1.0,2.0,78,-99.99,,,-99.99,0.000000,,2013-03-28 09:40:00,
2013-03-28 03:32:00,41.0,34.0,29.97,SSW,208,1.0,2.0,78,-99.99,,,-99.99,0.000000,,2013-03-28 10:32:00,
2013-03-28 03:40:00,40.0,34.0,29.96,ENE,66,4.0,6.0,79,-99.99,,,-99.99,0.000000,,2013-03-28 10:40:00,
2013-03-28 04:22:00,40.0,34.0,29.96,ENE,66,4.0,6.0,79,-99.99,,,-99.99,0.000000,,2013-03-28 11:22:00,
2013-03-28 05:22:00,39.0,32.0,29.97,North,351,3.0,5.0,78,-99.99,,,-99.99,0.000000,,2013-03-28 12:22:00,
2013-03-28 05:40:00,40.0,32.0,29.98,East,101,4.0,5.0,73,-99.99,,,-99.99,0.000000,,2013-03-28 12:40:00,
2013-03-28 06:22:00,40.0,32.0,29.98,East,101,4.0,5.0,73,-99.99,,,-99.99,0.000000,,2013-03-28 13:22:00,
2013-03-28 06:32:00,40.0,32.0,29.98,East,101,4.0,5.0,73,-99.99,,,-99.99,0.000000,,2013-03-28 13:32:00,
2013-03-28 06:40:00,37.0,31.0,29.98,North,352,4.0,6.0,80,-99.99,,,-99.99,0.000000,,2013-03-28 13:40:00,
2013-03-28 07:22:00,37.0,31.0,29.98,North,352,4.0,6.0,80,-99.99,,,-99.99,0.000000,,2013-03-28 14:22:00,
2013-03-28 07:32:00,37.0,31.0,29.98,North,352,4.0,6.0,80,-99.99,,,-99.99,0.000000,,2013-03-28 14:32:00,
2013-03-28 07:40:00,41.0,34.0,30.00,WNW,290,3.0,7.0,74,-99.99,,,-99.99,20.000000,,2013-03-28 14:40:00,
2013-03-28 08:21:00,41.0,34.0,30.00,WNW,290,3.0,7.0,74,-99.99,,,-99.99,20.000000,,2013-03-28 15:21:00,
2013-03-28 08:32:00,41.0,34.0,30.00,WNW,290,3.0,7.0,74,-99.99,,,-99.99,20.000000,,2013-03-28 15:32:00,
2013-03-28 08:40:00,45.0,35.0,30.02,NE,42,2.0,4.0,68,-99.99,,,-99.99,120.000000,,2013-03-28 15:40:00,
2013-03-28 09:23:00,45.0,35.0,30.02,NE,42,2.0,4.0,68,-99.99,,,-99.99,120.000000,,2013-03-28 16:23:00,
2013-03-28 09:32:00,45.0,35.0,30.02,NE,42,2.0,4.0,68,-99.99,,,-99.99,120.000000,,2013-03-28 16:32:00,
2013-03-28 09:40:00,49.0,33.0,-100.00,ENE,65,4.0,6.0,54,-99.99,,,-99.99,290.000000,,2013-03-28 16:40:00,
2013-03-28 10:22:00,49.0,33.0,30.03,ENE,65,4.0,6.0,54,-99.99,,,-99.99,290.000000,,2013-03-28 17:22:00,
2013-03-28 10:32:00,49.0,33.0,30.03,ENE,65,4.0,6.0,54,-99.99,,,-99.99,290.000000,,2013-03-28 17:32:00,
2013-03-28 10:40:00,54.0,34.0,30.05,SSE,161,2.0,6.0,46,-99.99,,,-99.99,430.000000,,2013-03-28 17:40:00,
2013-03-28 11:32:00,54.0,34.0,30.05,SSE,161,2.0,6.0,46,-99.99,,,-99.99,430.000000,,2013-03-28 18:32:00,
2013-03-28 11:40:00,54.0,33.0,30.06,NNE,20,2.0,8.0,44,-99.99,,,-99.99,390.000000,,2013-03-28 18:40:00,
2013-03-28 12:22:00,54.0,33.0,30.06,NNE,20,2.0,8.0,44,-99.99,,,-99.99,390.000000,,2013-03-28 19:22:00,
2013-03-28 12:32:00,54.0,33.0,30.06,NNE,20,2.0,8.0,44,-99.99,,,-99.99,390.000000,,2013-03-28 19:32:00,
2013-03-28 12:40:00,56.0,32.0,30.05,NE,40,5.0,10.0,40,-99.99,,,-99.99,560.000000,,2013-03-28 19:40:00,
2013-03-28 13:22:00,56.0,32.0,30.05,NE,40,5.0,10.0,40,-99.99,,,-99.99,560.000000,,2013-03-28 20:22:00,
2013-03-28 13:32:00,56.0,32.0,30.05,NE,40,5.0,10.0,40,-99.99,,,-99.99,560.000000,,2013-03-28 20:32:00,
2013-03-28 13:40:00,62.0,26.0,30.04,SSW,210,10.0,19.0,25,-99.99,,,-99.99,880.000000,,2013-03-28 20:40:00,
2013-03-28 14:22:00,62.0,26.0,30.04,SSW,210,10.0,19.0,25,-99.99,,,-99.99,880.000000,,2013-03-28 21:22:00,
2013-03-28 14:32:00,62.0,26.0,30.04,SSW,210,10.0,19.0,25,-99.99,,,-99.99,880.000000,,2013-03-28 21:32:00,
2013-03-28 14:40:00,61.0,27.0,30.03,WSW,238,14.0,19.0,27,-99.99,,,-99.99,820.000000,,2013-03-28 21:40:00,
2013-03-28 15:22:00,61.0,27.0,30.03,WSW,238,14.0,19.0,27,-99.99,,,-99.99,820.000000,,2013-03-28 22:22:00,
2013-03-28 15:32:00,61.0,27.0,30.03,WSW,238,14.0,19.0,27,-99.99,,,-99.99,820.000000,,2013-03-28 22:32:00,
2013-03-28 15:40:00,61.0,28.0,30.01,West,278,12.0,20.0,29,-99.99,,,-99.99,490.000000,,2013-03-28 22:40:00,
2013-03-28 16:32:00,61.0,28.0,30.01,West,278,12.0,20.0,29,-99.99,,,-99.99,490.000000,,2013-03-28 23:32:00,
2013-03-28 16:40:00,57.0,29.0,30.00,West,273,18.0,25.0,34,-99.99,,,-99.99,180.000000,,2013-03-28 23:40:00,
2013-03-28 17:22:00,57.0,29.0,30.00,West,273,18.0,25.0,34,-99.99,,,-99.99,180.000000,,2013-03-29 00:22:00,
2013-03-28 17:32:00,57.0,29.0,30.00,West,273,18.0,25.0,34,-99.99,,,-99.99,180.000000,,2013-03-29 00:32:00,
2013-03-28 17:40:00,51.0,35.0,-100.00,WNW,284,20.0,30.0,54,-99.99,,,-99.99,30.000000,,2013-03-29 00:40:00,
2013-03-28 18:22:00,51.0,35.0,30.02,WNW,284,20.0,30.0,54,-99.99,,,-99.99,30.000000,,2013-03-29 01:22:00,
2013-03-28 18:32:00,51.0,35.0,30.02,WNW,284,20.0,30.0,54,-99.99,,,-99.99,30.000000,,2013-03-29 01:32:00,
2013-03-28 18:40:00,50.0,37.0,-100.00,WNW,290,10.0,19.0,61,-99.99,,,-99.99,20.000000,,2013-03-29 01:40:00,
2013-03-28 19:22:00,50.0,37.0,30.05,WNW,290,10.0,19.0,61,-99.99,,,-99.99,20.000000,,2013-03-29 02:22:00,
2013-03-28 19:32:00,50.0,37.0,-100.00,WNW,290,10.0,19.0,61,-99.99,,,-99.99,20.000000,,2013-03-29 02:32:00,
2013-03-28 19:40:00,48.0,38.0,-100.00,West,265,7.0,15.0,69,-99.99,,,-99.99,0.000000,,2013-03-29 02:40:00,
2013-03-28 20:22:00,48.0,38.0,30.07,West,265,7.0,15.0,69,-99.99,,,-99.99,0.000000,,2013-03-29 03:22:00,
2013-03-28 20:32:00,48.0,38.0,-100.00,West,265,7.0,15.0,69,-99.99,,,-99.99,0.000000,,2013-03-29 03:32:00,
2013-03-28 20:40:00,47.0,39.0,-100.00,ENE,68,3.0,5.0,72,-99.99,,,-99.99,0.000000,,2013-03-29 03:40:00,
2013-03-28 21:22:00,47.0,39.0,30.09,ENE,68,3.0,5.0,72,-99.99,,,-99.99,0.000000,,2013-03-29 04:22:00,
2013-03-28 21:33:00,47.0,39.0,30.09,ENE,68,3.0,5.0,72,-99.99,,,-99.99,0.000000,,2013-03-29 04:33:00,
2013-03-28 21:40:00,44.0,36.0,-100.00,SSW,208,6.0,9.0,71,-99.99,,,-99.99,0.000000,,2013-03-29 04:40:00,
2013-03-28 22:23:00,44.0,36.0,30.10,SSW,208,6.0,9.0,71,-99.99,,,-99.99,0.000000,,2013-03-29 05:23:00,
2013-03-28 22:32:00,44.0,36.0,30.10,SSW,208,6.0,9.0,71,-99.99,,,-99.99,0.000000,,2013-03-29 05:32:00,
2013-03-28 22:40:00,43.0,36.0,-100.00,ESE,117,6.0,9.0,74,-99.99,,,-99.99,0.000000,,2013-03-29 05:40:00,
2013-03-28 23:22:00,43.0,36.0,30.12,ESE,117,6.0,9.0,74,-99.99,,,-99.99,0.000000,,2013-03-29 06:22:00,
2013-03-28 23:32:00,43.0,36.0,30.12,ESE,117,6.0,9.0,74,-99.99,,,-99.99,0.000000,,2013-03-29 06:32:00,
2013-03-28 23:40:00,39.0,34.0,30.12,East,79,4.0,6.0,83,-99.99,,,-99.99,0.000000,,2013-03-29 06:40:00,